Airfield :
LOGIN :

Register | Disclaimer

   EN    FR    IT 

 










Legend :    VFR   Marginal VFR   IFR   Intensive IFR   Very Intensive IFR
Visi :
Ceiling :
>= 8 km
>= 3000ft
5 to 8 km
1000 to 3000 ft
1500m to 5 km
500 to 1000 ft
800 to 1500m
200 to 500 ft
< 800m
< 200 ft
Symbols :   Thunderstorms  Fog  Heavy snow  Heavy precipitations  Wind > 20 kt
SIGMETs :     Misc.  Thunderstorms  Icing  Turbulence  Mountain Waves  Volcanic Ashes






- Airport Elevation : 327 ft
- IATA code : BHX


EGBB - Birmingham

CURRENT METAR :
  • 270750Z 34018KT 1300 R33/P1500 SHSN BKN005 OVC009 01/01 Q0995

EXPIRED METARs :
  • 270720Z 33020KT 9999 -SHRA BKN009 OVC015 01/01 Q0994 RESHSN
  • 270650Z 33020KT 1000 R33/1100U SHSN BKN004 BKN008 00/00 Q0993 RESHRA RESN
  • 270620Z 34025KT 2000 SHRASN BKN007 BKN018 01/01 Q0992 RESHRA RESN
  • 270550Z 34022G34KT 9000 -SN BKN007 OVC010 01/01 Q0992 RESN RERA
  • 270520Z 34022KT 8000 -RASN BKN008 OVC013 02/01 Q0991

TAF TAF EGBB
Valid from the 27 at 06:00 until the 28 at 06:00 UTC


270503Z 2706/2806 34017G27KT 9999 SCT030
PROB40
TEMPO 2706/2709 32025G40KT 3000 +RA SHRASN BKN008
PROB30
TEMPO 2709/2714 32025G40KT 3000 +RA SHRASN BKN008
BECMG 2722/2801 33012KT
ATIS : +44 121 780 0910



MET'MAP, your aeronautical weather chart ! - Copyright ORBIFLY December 2007 - Disclaimer

ORBIFLY MET'MAP TEAM :

Programming & Development : Alexandra Zaïnal
Concept & original design : Baudouin d'Aumeries
Assistance for programming : Marc-Olivier Méhu
Technical & hardware support : Manuel Goepfert

Contact : metmap@orbifly.com




SOURCES & CREDITS :

   NOAA